sensor_id;sensor_type;location;lat;lon;timestamp;temperature;humidity
37050;DHT22;22958;51.232;6.826;2023-02-28T00:00:49;1.00;99.90
37050;DHT22;22958;51.232;6.826;2023-02-28T00:03:15;0.90;99.90
37050;DHT22;22958;51.232;6.826;2023-02-28T00:05:41;0.90;99.90
37050;DHT22;22958;51.232;6.826;2023-02-28T00:08:07;0.90;99.90
37050;DHT22;22958;51.232;6.826;2023-02-28T00:10:33;1.00;99.90
37050;DHT22;22958;51.232;6.826;2023-02-28T00:13:02;1.00;99.90
37050;DHT22;22958;51.232;6.826;2023-02-28T00:15:28;1.00;99.90
37050;DHT22;22958;51.232;6.826;2023-02-28T00:17:53;1.00;99.90
37050;DHT22;22958;51.232;6.826;2023-02-28T00:20:20;0.90;99.90
37050;DHT22;22958;51.232;6.826;2023-02-28T00:22:49;0.90;99.90
37050;DHT22;22958;51.232;6.826;2023-02-28T00:25:18;0.90;99.90
37050;DHT22;22958;51.232;6.826;2023-02-28T00:27:44;0.80;99.90
37050;DHT22;22958;51.232;6.826;2023-02-28T00:30:17;0.90;99.90
37050;DHT22;22958;51.232;6.826;2023-02-28T00:32:43;1.00;99.90
37050;DHT22;22958;51.232;6.826;2023-02-28T00:35:10;1.10;99.90
37050;DHT22;22958;51.232;6.826;2023-02-28T00:37:36;1.10;99.90
37050;DHT22;22958;51.232;6.826;2023-02-28T00:40:02;1.20;99.90
37050;DHT22;22958;51.232;6.826;2023-02-28T00:42:30;1.20;99.90
37050;DHT22;22958;51.232;6.826;2023-02-28T00:44:56;1.20;99.90
37050;DHT22;22958;51.232;6.826;2023-02-28T00:47:21;1.20;99.90
37050;DHT22;22958;51.232;6.826;2023-02-28T00:49:47;1.20;99.90
37050;DHT22;22958;51.232;6.826;2023-02-28T00:52:12;1.10;99.90
37050;DHT22;22958;51.232;6.826;2023-02-28T00:54:37;1.00;99.90
37050;DHT22;22958;51.232;6.826;2023-02-28T00:57:03;1.00;99.90
37050;DHT22;22958;51.232;6.826;2023-02-28T00:59:29;1.00;99.90
37050;DHT22;22958;51.232;6.826;2023-02-28T01:01:54;0.90;99.90
37050;DHT22;22958;51.232;6.826;2023-02-28T01:04:20;0.90;99.90
37050;DHT22;22958;51.232;6.826;2023-02-28T01:06:45;0.90;99.90
37050;DHT22;22958;51.232;6.826;2023-02-28T01:09:11;0.90;99.90
37050;DHT22;22958;51.232;6.826;2023-02-28T01:11:37;0.80;99.90
37050;DHT22;22958;51.232;6.826;2023-02-28T01:14:03;0.70;99.90
37050;DHT22;22958;51.232;6.826;2023-02-28T01:16:30;0.60;99.90
37050;DHT22;22958;51.232;6.826;2023-02-28T01:18:56;0.60;99.90
37050;DHT22;22958;51.232;6.826;2023-02-28T01:21:21;0.60;99.90
37050;DHT22;22958;51.232;6.826;2023-02-28T01:23:47;0.50;99.90
37050;DHT22;22958;51.232;6.826;2023-02-28T01:26:16;0.50;99.90
37050;DHT22;22958;51.232;6.826;2023-02-28T01:28:41;0.40;99.90
37050;DHT22;22958;51.232;6.826;2023-02-28T01:31:08;0.40;99.90
37050;DHT22;22958;51.232;6.826;2023-02-28T01:33:34;0.40;99.90
37050;DHT22;22958;51.232;6.826;2023-02-28T01:36:01;0.30;99.90
37050;DHT22;22958;51.232;6.826;2023-02-28T01:38:27;0.30;99.90
37050;DHT22;22958;51.232;6.826;2023-02-28T01:40:53;0.30;99.90
37050;DHT22;22958;51.232;6.826;2023-02-28T01:45:49;0.30;99.90
37050;DHT22;22958;51.232;6.826;2023-02-28T01:48:14;0.40;99.90
37050;DHT22;22958;51.232;6.826;2023-02-28T01:50:43;0.30;99.90
37050;DHT22;22958;51.232;6.826;2023-02-28T01:53:13;0.40;99.90
37050;DHT22;22958;51.232;6.826;2023-02-28T01:55:46;0.40;99.90
37050;DHT22;22958;51.232;6.826;2023-02-28T01:58:12;0.40;99.90
37050;DHT22;22958;51.232;6.826;2023-02-28T02:00:38;0.50;99.90
37050;DHT22;22958;51.232;6.826;2023-02-28T02:03:09;0.50;99.90
37050;DHT22;22958;51.232;6.826;2023-02-28T02:05:36;0.50;99.90
37050;DHT22;22958;51.232;6.826;2023-02-28T02:08:11;0.60;99.90
37050;DHT22;22958;51.232;6.826;2023-02-28T02:10:55;0.60;99.90
37050;DHT22;22958;51.232;6.826;2023-02-28T02:13:37;0.60;99.90
37050;DHT22;22958;51.232;6.826;2023-02-28T02:18:58;0.40;99.90
37050;DHT22;22958;51.232;6.826;2023-02-28T02:21:41;0.40;99.90
37050;DHT22;22958;51.232;6.826;2023-02-28T02:24:34;0.40;99.90
37050;DHT22;22958;51.232;6.826;2023-02-28T02:32:58;0.30;99.90
37050;DHT22;22958;51.232;6.826;2023-02-28T02:38:29;0.10;99.90
37050;DHT22;22958;51.232;6.826;2023-02-28T02:41:18;0.10;99.90
37050;DHT22;22958;51.232;6.826;2023-02-28T02:43:49;0.20;99.90
37050;DHT22;22958;51.232;6.826;2023-02-28T02:46:26;0.00;99.90
37050;DHT22;22958;51.232;6.826;2023-02-28T02:48:55;0.00;99.90
37050;DHT22;22958;51.232;6.826;2023-02-28T02:51:23;0.00;99.90
37050;DHT22;22958;51.232;6.826;2023-02-28T02:53:55;0.00;99.90
37050;DHT22;22958;51.232;6.826;2023-02-28T02:56:26;0.00;99.90
37050;DHT22;22958;51.232;6.826;2023-02-28T02:58:56;0.10;99.90
37050;DHT22;22958;51.232;6.826;2023-02-28T03:01:26;0.00;99.90
37050;DHT22;22958;51.232;6.826;2023-02-28T03:03:56;0.00;99.90
37050;DHT22;22958;51.232;6.826;2023-02-28T03:06:23;0.00;99.90
37050;DHT22;22958;51.232;6.826;2023-02-28T03:08:48;0.00;99.90
37050;DHT22;22958;51.232;6.826;2023-02-28T03:11:15;0.10;99.90
37050;DHT22;22958;51.232;6.826;2023-02-28T03:22:46;0.20;99.90
37050;DHT22;22958;51.232;6.826;2023-02-28T03:30:41;0.20;99.90
37050;DHT22;22958;51.232;6.826;2023-02-28T03:33:15;0.20;99.90
37050;DHT22;22958;51.232;6.826;2023-02-28T03:36:06;0.20;99.90
37050;DHT22;22958;51.232;6.826;2023-02-28T03:38:54;0.20;99.90
37050;DHT22;22958;51.232;6.826;2023-02-28T03:41:26;0.20;99.90
37050;DHT22;22958;51.232;6.826;2023-02-28T03:43:59;0.30;99.90
37050;DHT22;22958;51.232;6.826;2023-02-28T03:46:31;0.20;99.90
37050;DHT22;22958;51.232;6.826;2023-02-28T03:49:32;0.20;99.90
37050;DHT22;22958;51.232;6.826;2023-02-28T03:52:01;0.10;99.90
37050;DHT22;22958;51.232;6.826;2023-02-28T03:54:39;0.10;99.90
37050;DHT22;22958;51.232;6.826;2023-02-28T04:00:35;0.00;99.90
37050;DHT22;22958;51.232;6.826;2023-02-28T04:03:03;0.00;99.90
37050;DHT22;22958;51.232;6.826;2023-02-28T04:05:29;0.00;99.90
37050;DHT22;22958;51.232;6.826;2023-02-28T04:08:06;0.00;99.90
37050;DHT22;22958;51.232;6.826;2023-02-28T04:10:32;-0.10;99.90
37050;DHT22;22958;51.232;6.826;2023-02-28T04:12:58;0.00;99.90
37050;DHT22;22958;51.232;6.826;2023-02-28T04:15:23;-0.10;99.90
37050;DHT22;22958;51.232;6.826;2023-02-28T04:17:50;-0.20;99.90
37050;DHT22;22958;51.232;6.826;2023-02-28T04:20:15;-0.20;99.90
37050;DHT22;22958;51.232;6.826;2023-02-28T04:22:41;-0.20;99.90
37050;DHT22;22958;51.232;6.826;2023-02-28T04:25:07;-0.20;99.90
37050;DHT22;22958;51.232;6.826;2023-02-28T04:27:33;-0.30;99.90
37050;DHT22;22958;51.232;6.826;2023-02-28T04:29:58;-0.20;99.90
37050;DHT22;22958;51.232;6.826;2023-02-28T04:32:24;-0.20;99.90
37050;DHT22;22958;51.232;6.826;2023-02-28T04:34:49;-0.20;99.90
37050;DHT22;22958;51.232;6.826;2023-02-28T04:37:15;-0.10;99.90
37050;DHT22;22958;51.232;6.826;2023-02-28T04:39:41;-0.20;99.90
37050;DHT22;22958;51.232;6.826;2023-02-28T04:42:07;-0.30;99.90
37050;DHT22;22958;51.232;6.826;2023-02-28T04:44:32;-0.30;99.90
37050;DHT22;22958;51.232;6.826;2023-02-28T04:46:58;-0.20;99.90
37050;DHT22;22958;51.232;6.826;2023-02-28T04:49:25;-0.30;99.90
37050;DHT22;22958;51.232;6.826;2023-02-28T04:51:50;-0.30;99.90
37050;DHT22;22958;51.232;6.826;2023-02-28T04:54:16;-0.30;99.90
37050;DHT22;22958;51.232;6.826;2023-02-28T04:56:43;-0.30;99.90
37050;DHT22;22958;51.232;6.826;2023-02-28T04:59:08;-0.40;99.90
37050;DHT22;22958;51.232;6.826;2023-02-28T05:01:34;-0.40;99.90
37050;DHT22;22958;51.232;6.826;2023-02-28T05:04:03;-0.40;99.90
37050;DHT22;22958;51.232;6.826;2023-02-28T05:06:31;-0.40;99.90
37050;DHT22;22958;51.232;6.826;2023-02-28T05:08:57;-0.30;99.90
37050;DHT22;22958;51.232;6.826;2023-02-28T05:11:25;-0.30;99.90
37050;DHT22;22958;51.232;6.826;2023-02-28T05:13:52;-0.30;99.90
37050;DHT22;22958;51.232;6.826;2023-02-28T05:16:18;-0.30;99.90
37050;DHT22;22958;51.232;6.826;2023-02-28T05:18:44;-0.30;99.90
37050;DHT22;22958;51.232;6.826;2023-02-28T05:21:27;-0.30;99.90
37050;DHT22;22958;51.232;6.826;2023-02-28T05:23:53;-0.30;99.90
37050;DHT22;22958;51.232;6.826;2023-02-28T05:26:20;-0.30;99.90
37050;DHT22;22958;51.232;6.826;2023-02-28T05:28:45;-0.40;99.90
37050;DHT22;22958;51.232;6.826;2023-02-28T05:31:11;-0.40;99.90
37050;DHT22;22958;51.232;6.826;2023-02-28T05:33:37;-0.40;99.90
37050;DHT22;22958;51.232;6.826;2023-02-28T05:36:03;-0.40;99.90
37050;DHT22;22958;51.232;6.826;2023-02-28T05:38:29;-0.30;99.90
37050;DHT22;22958;51.232;6.826;2023-02-28T05:40:54;-0.40;99.90
37050;DHT22;22958;51.232;6.826;2023-02-28T05:43:20;-0.40;99.90
37050;DHT22;22958;51.232;6.826;2023-02-28T05:45:46;-0.40;99.90
37050;DHT22;22958;51.232;6.826;2023-02-28T05:48:11;-0.30;99.90
37050;DHT22;22958;51.232;6.826;2023-02-28T05:50:37;-0.40;99.90
37050;DHT22;22958;51.232;6.826;2023-02-28T05:53:02;-0.40;99.90
37050;DHT22;22958;51.232;6.826;2023-02-28T05:55:28;-0.50;99.90
37050;DHT22;22958;51.232;6.826;2023-02-28T05:57:53;-0.50;99.90
37050;DHT22;22958;51.232;6.826;2023-02-28T06:00:19;-0.50;99.90
37050;DHT22;22958;51.232;6.826;2023-02-28T06:02:45;-0.50;99.90
37050;DHT22;22958;51.232;6.826;2023-02-28T06:05:14;-0.40;99.90
37050;DHT22;22958;51.232;6.826;2023-02-28T06:07:40;-0.50;99.90
37050;DHT22;22958;51.232;6.826;2023-02-28T06:10:06;-0.40;99.90
37050;DHT22;22958;51.232;6.826;2023-02-28T06:12:31;-0.40;99.90
37050;DHT22;22958;51.232;6.826;2023-02-28T06:14:57;-0.30;99.90
37050;DHT22;22958;51.232;6.826;2023-02-28T06:17:22;-0.30;99.90
37050;DHT22;22958;51.232;6.826;2023-02-28T06:19:48;-0.30;99.90
37050;DHT22;22958;51.232;6.826;2023-02-28T06:22:13;-0.30;99.90
37050;DHT22;22958;51.232;6.826;2023-02-28T06:24:39;-0.20;99.90
37050;DHT22;22958;51.232;6.826;2023-02-28T06:27:05;-0.20;99.90
37050;DHT22;22958;51.232;6.826;2023-02-28T06:29:34;-0.20;99.90
37050;DHT22;22958;51.232;6.826;2023-02-28T06:32:00;-0.20;99.90
37050;DHT22;22958;51.232;6.826;2023-02-28T06:34:25;-0.20;99.90
37050;DHT22;22958;51.232;6.826;2023-02-28T06:36:51;-0.30;99.90
37050;DHT22;22958;51.232;6.826;2023-02-28T06:39:17;-0.30;99.90
37050;DHT22;22958;51.232;6.826;2023-02-28T06:41:43;-0.20;99.90
37050;DHT22;22958;51.232;6.826;2023-02-28T06:44:15;-0.20;99.90
37050;DHT22;22958;51.232;6.826;2023-02-28T06:46:42;0.00;99.90
37050;DHT22;22958;51.232;6.826;2023-02-28T06:49:08;0.80;99.90
37050;DHT22;22958;51.232;6.826;2023-02-28T06:51:35;1.10;99.90
37050;DHT22;22958;51.232;6.826;2023-02-28T06:54:01;0.90;99.90
37050;DHT22;22958;51.232;6.826;2023-02-28T06:56:27;0.80;99.90
37050;DHT22;22958;51.232;6.826;2023-02-28T06:58:52;0.60;99.90
37050;DHT22;22958;51.232;6.826;2023-02-28T07:01:18;0.50;99.90
37050;DHT22;22958;51.232;6.826;2023-02-28T07:03:44;0.40;99.90
37050;DHT22;22958;51.232;6.826;2023-02-28T07:06:10;0.40;99.90
37050;DHT22;22958;51.232;6.826;2023-02-28T07:08:36;0.30;99.90
37050;DHT22;22958;51.232;6.826;2023-02-28T07:11:02;0.40;99.90
37050;DHT22;22958;51.232;6.826;2023-02-28T07:13:28;0.40;99.90
37050;DHT22;22958;51.232;6.826;2023-02-28T07:15:59;0.50;99.90
37050;DHT22;22958;51.232;6.826;2023-02-28T07:18:25;0.50;99.90
37050;DHT22;22958;51.232;6.826;2023-02-28T07:20:51;0.50;99.90
37050;DHT22;22958;51.232;6.826;2023-02-28T07:23:16;0.60;99.90
37050;DHT22;22958;51.232;6.826;2023-02-28T07:25:42;0.70;99.90
37050;DHT22;22958;51.232;6.826;2023-02-28T07:28:08;0.80;99.90
37050;DHT22;22958;51.232;6.826;2023-02-28T07:30:33;0.90;99.90
37050;DHT22;22958;51.232;6.826;2023-02-28T07:32:59;0.90;99.90
37050;DHT22;22958;51.232;6.826;2023-02-28T07:35:24;1.10;99.90
37050;DHT22;22958;51.232;6.826;2023-02-28T07:37:50;1.20;99.90
37050;DHT22;22958;51.232;6.826;2023-02-28T07:40:16;1.20;99.90
37050;DHT22;22958;51.232;6.826;2023-02-28T07:42:43;1.30;99.90
37050;DHT22;22958;51.232;6.826;2023-02-28T07:45:09;1.40;99.90
37050;DHT22;22958;51.232;6.826;2023-02-28T07:47:40;1.50;99.90
37050;DHT22;22958;51.232;6.826;2023-02-28T07:50:08;1.60;99.90
37050;DHT22;22958;51.232;6.826;2023-02-28T07:52:36;1.80;99.90
37050;DHT22;22958;51.232;6.826;2023-02-28T07:55:01;1.90;99.90
37050;DHT22;22958;51.232;6.826;2023-02-28T07:57:27;2.00;99.90
37050;DHT22;22958;51.232;6.826;2023-02-28T07:59:52;2.00;99.90
37050;DHT22;22958;51.232;6.826;2023-02-28T08:02:18;2.00;99.90
37050;DHT22;22958;51.232;6.826;2023-02-28T08:04:45;2.20;99.90
37050;DHT22;22958;51.232;6.826;2023-02-28T08:07:12;2.20;99.90
37050;DHT22;22958;51.232;6.826;2023-02-28T08:09:41;2.30;99.90
37050;DHT22;22958;51.232;6.826;2023-02-28T08:12:08;2.40;99.90
37050;DHT22;22958;51.232;6.826;2023-02-28T08:14:34;2.50;99.90
37050;DHT22;22958;51.232;6.826;2023-02-28T08:16:59;2.60;99.90
37050;DHT22;22958;51.232;6.826;2023-02-28T08:19:25;2.70;99.90
37050;DHT22;22958;51.232;6.826;2023-02-28T08:21:51;2.80;99.90
37050;DHT22;22958;51.232;6.826;2023-02-28T08:24:16;2.90;99.90
37050;DHT22;22958;51.232;6.826;2023-02-28T08:26:42;2.90;99.90
37050;DHT22;22958;51.232;6.826;2023-02-28T08:29:07;3.00;99.90
37050;DHT22;22958;51.232;6.826;2023-02-28T08:31:33;3.00;99.90
37050;DHT22;22958;51.232;6.826;2023-02-28T08:34:04;3.10;99.90
37050;DHT22;22958;51.232;6.826;2023-02-28T08:36:30;3.20;99.70
37050;DHT22;22958;51.232;6.826;2023-02-28T08:38:56;3.20;99.30
37050;DHT22;22958;51.232;6.826;2023-02-28T08:41:22;3.30;99.00
37050;DHT22;22958;51.232;6.826;2023-02-28T08:43:47;3.30;98.70
37050;DHT22;22958;51.232;6.826;2023-02-28T08:46:13;3.40;98.30
37050;DHT22;22958;51.232;6.826;2023-02-28T08:48:39;3.40;98.30
37050;DHT22;22958;51.232;6.826;2023-02-28T08:51:13;3.50;98.00
37050;DHT22;22958;51.232;6.826;2023-02-28T08:53:40;3.50;97.50
37050;DHT22;22958;51.232;6.826;2023-02-28T08:56:11;3.60;96.80
37050;DHT22;22958;51.232;6.826;2023-02-28T08:58:38;3.60;96.40
37050;DHT22;22958;51.232;6.826;2023-02-28T09:01:13;3.60;96.30
37050;DHT22;22958;51.232;6.826;2023-02-28T09:03:40;3.70;96.00
37050;DHT22;22958;51.232;6.826;2023-02-28T09:06:09;3.70;95.00
37050;DHT22;22958;51.232;6.826;2023-02-28T09:08:35;3.80;95.20
37050;DHT22;22958;51.232;6.826;2023-02-28T09:11:01;3.90;94.90
37050;DHT22;22958;51.232;6.826;2023-02-28T09:13:28;3.90;94.90
37050;DHT22;22958;51.232;6.826;2023-02-28T09:15:55;3.80;94.70
37050;DHT22;22958;51.232;6.826;2023-02-28T09:18:22;3.90;94.70
37050;DHT22;22958;51.232;6.826;2023-02-28T09:20:47;3.90;94.30
37050;DHT22;22958;51.232;6.826;2023-02-28T09:23:13;4.00;94.50
37050;DHT22;22958;51.232;6.826;2023-02-28T09:25:49;4.10;94.50
37050;DHT22;22958;51.232;6.826;2023-02-28T09:28:15;4.20;94.40
37050;DHT22;22958;51.232;6.826;2023-02-28T09:30:41;4.40;94.20
37050;DHT22;22958;51.232;6.826;2023-02-28T09:33:07;4.40;93.40
37050;DHT22;22958;51.232;6.826;2023-02-28T09:35:33;4.40;92.40
37050;DHT22;22958;51.232;6.826;2023-02-28T09:37:58;4.30;92.90
37050;DHT22;22958;51.232;6.826;2023-02-28T09:40:25;4.60;93.70
37050;DHT22;22958;51.232;6.826;2023-02-28T09:42:51;4.70;93.10
37050;DHT22;22958;51.232;6.826;2023-02-28T09:45:31;4.80;92.90
37050;DHT22;22958;51.232;6.826;2023-02-28T09:48:01;4.80;92.60
37050;DHT22;22958;51.232;6.826;2023-02-28T09:50:40;4.80;92.70
37050;DHT22;22958;51.232;6.826;2023-02-28T09:53:15;5.00;92.40
37050;DHT22;22958;51.232;6.826;2023-02-28T09:55:48;5.30;91.90
37050;DHT22;22958;51.232;6.826;2023-02-28T10:01:29;5.10;91.80
37050;DHT22;22958;51.232;6.826;2023-02-28T10:04:00;5.40;91.70
37050;DHT22;22958;51.232;6.826;2023-02-28T10:06:33;5.30;91.50
37050;DHT22;22958;51.232;6.826;2023-02-28T10:09:24;5.30;91.30
37050;DHT22;22958;51.232;6.826;2023-02-28T10:11:54;5.40;91.10
37050;DHT22;22958;51.232;6.826;2023-02-28T10:14:23;5.30;90.70
37050;DHT22;22958;51.232;6.826;2023-02-28T10:16:59;5.10;90.40
37050;DHT22;22958;51.232;6.826;2023-02-28T10:19:54;5.50;91.00
37050;DHT22;22958;51.232;6.826;2023-02-28T10:22:29;5.70;90.50
37050;DHT22;22958;51.232;6.826;2023-02-28T10:24:57;6.00;90.10
37050;DHT22;22958;51.232;6.826;2023-02-28T10:27:29;5.80;90.10
37050;DHT22;22958;51.232;6.826;2023-02-28T10:29:57;5.90;90.50
37050;DHT22;22958;51.232;6.826;2023-02-28T10:32:25;6.10;89.60
37050;DHT22;22958;51.232;6.826;2023-02-28T10:35:01;5.90;89.20
37050;DHT22;22958;51.232;6.826;2023-02-28T10:37:31;6.00;89.70
37050;DHT22;22958;51.232;6.826;2023-02-28T10:39:57;5.80;89.50
37050;DHT22;22958;51.232;6.826;2023-02-28T10:42:25;5.90;89.50
37050;DHT22;22958;51.232;6.826;2023-02-28T10:45:15;5.70;89.40
37050;DHT22;22958;51.232;6.826;2023-02-28T10:47:57;6.00;89.60
37050;DHT22;22958;51.232;6.826;2023-02-28T11:01:40;6.50;86.90
37050;DHT22;22958;51.232;6.826;2023-02-28T11:07:20;6.50;85.50
37050;DHT22;22958;51.232;6.826;2023-02-28T11:09:52;6.40;85.70
37050;DHT22;22958;51.232;6.826;2023-02-28T11:12:37;6.50;84.70
37050;DHT22;22958;51.232;6.826;2023-02-28T11:15:26;6.20;85.20
37050;DHT22;22958;51.232;6.826;2023-02-28T11:20:38;6.30;85.10
37050;DHT22;22958;51.232;6.826;2023-02-28T11:23:05;7.60;82.40
37050;DHT22;22958;51.232;6.826;2023-02-28T11:25:38;9.40;79.00
37050;DHT22;22958;51.232;6.826;2023-02-28T11:28:23;11.00;72.50
37050;DHT22;22958;51.232;6.826;2023-02-28T11:31:05;13.00;66.50
37050;DHT22;22958;51.232;6.826;2023-02-28T11:33:32;14.00;59.20
37050;DHT22;22958;51.232;6.826;2023-02-28T11:36:13;13.90;53.80
37050;DHT22;22958;51.232;6.826;2023-02-28T11:38:39;14.00;53.80
37050;DHT22;22958;51.232;6.826;2023-02-28T11:46:51;15.20;48.10
37050;DHT22;22958;51.232;6.826;2023-02-28T11:55:25;15.40;46.60
37050;DHT22;22958;51.232;6.826;2023-02-28T12:01:08;18.30;43.20
37050;DHT22;22958;51.232;6.826;2023-02-28T12:06:28;19.30;39.40
37050;DHT22;22958;51.232;6.826;2023-02-28T12:09:13;18.90;39.40
37050;DHT22;22958;51.232;6.826;2023-02-28T12:11:56;19.60;38.30
37050;DHT22;22958;51.232;6.826;2023-02-28T12:14:50;18.70;38.50
37050;DHT22;22958;51.232;6.826;2023-02-28T12:17:22;17.70;38.10
37050;DHT22;22958;51.232;6.826;2023-02-28T12:28:30;12.80;45.10
37050;DHT22;22958;51.232;6.826;2023-02-28T12:31:08;13.10;45.30
37050;DHT22;22958;51.232;6.826;2023-02-28T12:33:40;15.30;44.30
37050;DHT22;22958;51.232;6.826;2023-02-28T12:36:15;14.80;41.50
37050;DHT22;22958;51.232;6.826;2023-02-28T12:38:48;16.30;42.80
37050;DHT22;22958;51.232;6.826;2023-02-28T12:41:34;17.50;40.50
37050;DHT22;22958;51.232;6.826;2023-02-28T12:44:05;15.60;39.80
37050;DHT22;22958;51.232;6.826;2023-02-28T12:46:37;17.90;39.10
37050;DHT22;22958;51.232;6.826;2023-02-28T12:49:15;17.00;38.70
37050;DHT22;22958;51.232;6.826;2023-02-28T12:51:41;17.20;40.30
37050;DHT22;22958;51.232;6.826;2023-02-28T13:09:56;19.30;35.80
37050;DHT22;22958;51.232;6.826;2023-02-28T13:12:22;20.90;34.90
37050;DHT22;22958;51.232;6.826;2023-02-28T13:14:48;21.80;34.10
37050;DHT22;22958;51.232;6.826;2023-02-28T13:17:23;21.60;32.20
37050;DHT22;22958;51.232;6.826;2023-02-28T13:25:00;19.30;34.60
37050;DHT22;22958;51.232;6.826;2023-02-28T13:27:46;18.60;34.80
37050;DHT22;22958;51.232;6.826;2023-02-28T13:44:06;21.80;31.70
37050;DHT22;22958;51.232;6.826;2023-02-28T13:46:38;21.30;32.60
37050;DHT22;22958;51.232;6.826;2023-02-28T13:49:31;22.20;31.00
37050;DHT22;22958;51.232;6.826;2023-02-28T13:54:34;22.40;30.40
37050;DHT22;22958;51.232;6.826;2023-02-28T14:05:26;22.40;29.90
37050;DHT22;22958;51.232;6.826;2023-02-28T14:07:58;22.50;30.30
37050;DHT22;22958;51.232;6.826;2023-02-28T14:10:36;22.70;30.00
37050;DHT22;22958;51.232;6.826;2023-02-28T14:16:00;21.60;29.70
37050;DHT22;22958;51.232;6.826;2023-02-28T14:18:33;21.70;30.90
37050;DHT22;22958;51.232;6.826;2023-02-28T14:21:27;21.40;31.00
37050;DHT22;22958;51.232;6.826;2023-02-28T14:37:48;19.10;32.20
37050;DHT22;22958;51.232;6.826;2023-02-28T14:40:15;20.90;32.60
37050;DHT22;22958;51.232;6.826;2023-02-28T14:42:47;21.50;30.50
37050;DHT22;22958;51.232;6.826;2023-02-28T14:45:21;20.40;31.40
37050;DHT22;22958;51.232;6.826;2023-02-28T14:47:49;19.20;32.90
37050;DHT22;22958;51.232;6.826;2023-02-28T14:50:29;19.50;32.30
37050;DHT22;22958;51.232;6.826;2023-02-28T14:52:56;19.90;31.80
37050;DHT22;22958;51.232;6.826;2023-02-28T14:55:34;19.80;32.70
37050;DHT22;22958;51.232;6.826;2023-02-28T14:58:02;16.10;35.30
37050;DHT22;22958;51.232;6.826;2023-02-28T15:00:35;18.20;35.70
37050;DHT22;22958;51.232;6.826;2023-02-28T15:03:19;20.30;33.70
37050;DHT22;22958;51.232;6.826;2023-02-28T15:05:59;20.20;32.60
37050;DHT22;22958;51.232;6.826;2023-02-28T15:08:26;20.00;32.10
37050;DHT22;22958;51.232;6.826;2023-02-28T15:10:59;19.90;32.30
37050;DHT22;22958;51.232;6.826;2023-02-28T15:13:42;18.80;32.30
37050;DHT22;22958;51.232;6.826;2023-02-28T15:16:15;18.20;33.90
37050;DHT22;22958;51.232;6.826;2023-02-28T15:19:00;19.40;33.90
37050;DHT22;22958;51.232;6.826;2023-02-28T15:21:38;19.50;33.30
37050;DHT22;22958;51.232;6.826;2023-02-28T15:24:14;19.90;33.20
37050;DHT22;22958;51.232;6.826;2023-02-28T15:26:44;18.90;34.30
37050;DHT22;22958;51.232;6.826;2023-02-28T15:29:21;19.80;34.50
37050;DHT22;22958;51.232;6.826;2023-02-28T15:32:07;20.00;33.50
37050;DHT22;22958;51.232;6.826;2023-02-28T15:34:40;17.50;33.80
37050;DHT22;22958;51.232;6.826;2023-02-28T15:39:50;16.60;38.10
37050;DHT22;22958;51.232;6.826;2023-02-28T15:42:20;18.20;36.90
37050;DHT22;22958;51.232;6.826;2023-02-28T15:44:46;16.00;37.80
37050;DHT22;22958;51.232;6.826;2023-02-28T15:49:47;16.20;37.90
37050;DHT22;22958;51.232;6.826;2023-02-28T15:52:16;16.10;38.80
37050;DHT22;22958;51.232;6.826;2023-02-28T15:54:44;16.40;38.10
37050;DHT22;22958;51.232;6.826;2023-02-28T15:57:21;15.40;38.90
37050;DHT22;22958;51.232;6.826;2023-02-28T15:59:55;14.70;40.00
37050;DHT22;22958;51.232;6.826;2023-02-28T16:02:31;15.00;39.80
37050;DHT22;22958;51.232;6.826;2023-02-28T16:07:34;13.70;42.10
37050;DHT22;22958;51.232;6.826;2023-02-28T16:10:01;13.00;42.80
37050;DHT22;22958;51.232;6.826;2023-02-28T16:12:29;13.20;44.40
37050;DHT22;22958;51.232;6.826;2023-02-28T16:14:59;13.10;44.30
37050;DHT22;22958;51.232;6.826;2023-02-28T16:17:29;11.30;46.50
37050;DHT22;22958;51.232;6.826;2023-02-28T16:19:55;10.40;49.20
37050;DHT22;22958;51.232;6.826;2023-02-28T16:22:21;9.70;51.00
37050;DHT22;22958;51.232;6.826;2023-02-28T16:24:47;9.00;52.90
37050;DHT22;22958;51.232;6.826;2023-02-28T16:27:17;8.80;54.00
37050;DHT22;22958;51.232;6.826;2023-02-28T16:29:44;8.50;55.20
37050;DHT22;22958;51.232;6.826;2023-02-28T16:32:13;8.00;56.50
37050;DHT22;22958;51.232;6.826;2023-02-28T16:34:39;7.40;57.60
37050;DHT22;22958;51.232;6.826;2023-02-28T16:37:11;6.90;59.10
37050;DHT22;22958;51.232;6.826;2023-02-28T16:39:37;6.70;60.50
37050;DHT22;22958;51.232;6.826;2023-02-28T16:42:02;6.60;61.20
37050;DHT22;22958;51.232;6.826;2023-02-28T16:46:54;6.10;63.90
37050;DHT22;22958;51.232;6.826;2023-02-28T16:49:20;6.00;64.60
37050;DHT22;22958;51.232;6.826;2023-02-28T16:51:46;5.90;65.50
37050;DHT22;22958;51.232;6.826;2023-02-28T16:54:12;5.80;66.10
37050;DHT22;22958;51.232;6.826;2023-02-28T16:56:40;5.70;67.50
37050;DHT22;22958;51.232;6.826;2023-02-28T16:59:08;5.70;67.10
37050;DHT22;22958;51.232;6.826;2023-02-28T17:01:34;5.50;67.80
37050;DHT22;22958;51.232;6.826;2023-02-28T17:03:59;5.50;68.60
37050;DHT22;22958;51.232;6.826;2023-02-28T17:06:27;5.40;68.60
37050;DHT22;22958;51.232;6.826;2023-02-28T17:08:53;5.30;69.00
37050;DHT22;22958;51.232;6.826;2023-02-28T17:11:20;5.30;69.30
37050;DHT22;22958;51.232;6.826;2023-02-28T17:13:46;5.20;69.70
37050;DHT22;22958;51.232;6.826;2023-02-28T17:16:32;5.20;70.00
37050;DHT22;22958;51.232;6.826;2023-02-28T17:19:01;5.00;70.80
37050;DHT22;22958;51.232;6.826;2023-02-28T17:21:27;4.90;71.30
37050;DHT22;22958;51.232;6.826;2023-02-28T17:23:53;4.90;71.80
37050;DHT22;22958;51.232;6.826;2023-02-28T17:26:20;4.90;72.10
37050;DHT22;22958;51.232;6.826;2023-02-28T17:28:47;4.80;72.50
37050;DHT22;22958;51.232;6.826;2023-02-28T17:31:13;4.80;72.50
37050;DHT22;22958;51.232;6.826;2023-02-28T17:33:38;4.80;73.00
37050;DHT22;22958;51.232;6.826;2023-02-28T17:36:04;4.70;73.50
37050;DHT22;22958;51.232;6.826;2023-02-28T17:38:30;4.60;74.10
37050;DHT22;22958;51.232;6.826;2023-02-28T17:40:56;4.60;74.90
37050;DHT22;22958;51.232;6.826;2023-02-28T17:43:25;4.60;75.50
37050;DHT22;22958;51.232;6.826;2023-02-28T17:45:51;4.50;75.70
37050;DHT22;22958;51.232;6.826;2023-02-28T17:48:17;4.40;76.00
37050;DHT22;22958;51.232;6.826;2023-02-28T17:50:42;4.40;76.80
37050;DHT22;22958;51.232;6.826;2023-02-28T17:53:08;4.30;77.10
37050;DHT22;22958;51.232;6.826;2023-02-28T17:55:33;4.30;78.10
37050;DHT22;22958;51.232;6.826;2023-02-28T17:58:00;4.20;78.50
37050;DHT22;22958;51.232;6.826;2023-02-28T18:00:25;4.20;79.00
37050;DHT22;22958;51.232;6.826;2023-02-28T18:02:51;4.20;79.80
37050;DHT22;22958;51.232;6.826;2023-02-28T18:05:16;4.10;80.30
37050;DHT22;22958;51.232;6.826;2023-02-28T18:07:42;4.10;81.30
37050;DHT22;22958;51.232;6.826;2023-02-28T18:10:19;4.00;81.30
37050;DHT22;22958;51.232;6.826;2023-02-28T18:12:50;4.00;82.70
37050;DHT22;22958;51.232;6.826;2023-02-28T18:15:18;4.00;82.80
37050;DHT22;22958;51.232;6.826;2023-02-28T18:17:46;4.00;83.00
37050;DHT22;22958;51.232;6.826;2023-02-28T18:20:12;4.00;83.90
37050;DHT22;22958;51.232;6.826;2023-02-28T18:22:39;3.90;84.50
37050;DHT22;22958;51.232;6.826;2023-02-28T18:25:07;3.90;85.30